createdAt,value
2022-07-26T00:02:23.218Z,85.84
2022-07-26T00:04:52.631Z,85.75
2022-07-26T00:07:19.308Z,86.60
2022-07-26T00:09:48.400Z,86.18
2022-07-26T00:12:15.653Z,86.27
2022-07-26T00:14:43.521Z,87.37
2022-07-26T00:17:10.466Z,86.96
2022-07-26T00:19:37.111Z,85.86
2022-07-26T00:22:22.825Z,85.80
2022-07-26T00:24:49.424Z,85.97
2022-07-26T00:27:16.182Z,85.94
2022-07-26T00:29:43.068Z,86.65
2022-07-26T00:32:09.696Z,85.47
2022-07-26T00:34:36.328Z,86.00
2022-07-26T00:37:03.134Z,86.22
2022-07-26T00:39:29.981Z,87.09
2022-07-26T00:41:56.690Z,85.75
2022-07-26T00:44:23.333Z,84.89
2022-07-26T00:46:50.080Z,85.01
2022-07-26T00:49:16.908Z,84.89
2022-07-26T00:51:46.457Z,84.83
2022-07-26T00:54:13.362Z,86.86
2022-07-26T00:56:40.090Z,86.22
2022-07-26T00:59:07.068Z,86.25
2022-07-26T01:01:34.159Z,86.78
2022-07-26T01:04:01.039Z,86.43
2022-07-26T01:06:27.997Z,86.06
2022-07-26T01:08:55.037Z,85.08
2022-07-26T01:11:21.722Z,85.56
2022-07-26T01:13:50.048Z,86.10
2022-07-26T01:16:17.777Z,85.71
2022-07-26T01:18:44.678Z,87.09
2022-07-26T01:21:13.962Z,86.39
2022-07-26T01:23:42.346Z,87.06
2022-07-26T01:26:09.013Z,86.03
2022-07-26T01:28:37.778Z,85.11
2022-07-26T01:31:08.258Z,86.25
2022-07-26T01:33:35.562Z,86.27
2022-07-26T01:36:02.284Z,85.47
2022-07-26T01:38:28.942Z,85.35
2022-07-26T01:40:55.592Z,85.75
2022-07-26T01:43:22.205Z,85.76
2022-07-26T01:45:48.943Z,85.23
2022-07-26T01:48:15.754Z,85.16
2022-07-26T01:50:42.631Z,85.73
2022-07-26T01:53:09.252Z,85.76
2022-07-26T01:55:36.208Z,85.32
2022-07-26T01:58:05.169Z,85.32
2022-07-26T02:00:32.625Z,85.25
2022-07-26T02:02:59.562Z,85.68
2022-07-26T02:05:26.380Z,86.00
2022-07-26T02:07:53.428Z,86.13
2022-07-26T02:10:20.165Z,86.34
2022-07-26T02:12:48.506Z,87.48
2022-07-26T02:15:15.653Z,87.37
2022-07-26T02:17:42.924Z,87.02
2022-07-26T02:20:10.052Z,85.42
2022-07-26T02:22:36.726Z,84.96
2022-07-26T02:25:05.523Z,86.22
2022-07-26T02:27:32.778Z,86.61
2022-07-26T02:29:59.470Z,86.16
2022-07-26T02:32:26.135Z,85.71
2022-07-26T02:34:52.828Z,85.74
2022-07-26T02:37:19.469Z,86.68
2022-07-26T02:39:46.184Z,86.37
2022-07-26T02:42:12.900Z,86.22
2022-07-26T02:44:41.530Z,86.33
2022-07-26T02:47:08.114Z,85.95
2022-07-26T02:49:34.722Z,86.21
2022-07-26T02:52:01.361Z,85.52
2022-07-26T02:54:28.106Z,85.73
2022-07-26T02:56:54.742Z,85.04
2022-07-26T02:59:21.377Z,85.08
2022-07-26T03:01:48.100Z,84.98
2022-07-26T03:04:14.714Z,85.59
2022-07-26T03:06:41.395Z,84.45
2022-07-26T03:09:07.999Z,84.29
2022-07-26T03:11:34.573Z,84.71
2022-07-26T03:14:01.270Z,85.35
2022-07-26T03:16:29.794Z,84.54
2022-07-26T03:18:57.077Z,84.37
2022-07-26T03:21:24.142Z,83.99
2022-07-26T03:23:50.764Z,83.62
2022-07-26T03:26:17.498Z,82.82
2022-07-26T03:28:44.681Z,82.34
2022-07-26T03:31:13.014Z,81.22
2022-07-26T03:33:40.438Z,81.12
2022-07-26T03:36:11.528Z,81.44
2022-07-26T03:38:39.698Z,80.97
2022-07-26T03:41:06.633Z,80.86
2022-07-26T03:43:36.364Z,80.64
2022-07-26T03:46:03.387Z,80.45
2022-07-26T03:48:31.420Z,80.25
2022-07-26T03:51:00.449Z,79.75
2022-07-26T03:53:27.093Z,79.84
2022-07-26T03:56:13.364Z,80.64
2022-07-26T03:58:40.239Z,80.55
2022-07-26T04:01:14.536Z,83.28
2022-07-26T04:03:47.701Z,81.73
2022-07-26T04:06:15.175Z,82.22
2022-07-26T04:08:42.437Z,82.54
2022-07-26T04:11:09.214Z,81.22
2022-07-26T04:13:36.654Z,81.87
2022-07-26T04:16:09.175Z,82.43
2022-07-26T04:18:35.806Z,82.68
2022-07-26T04:21:02.865Z,84.88
2022-07-26T04:23:29.633Z,83.83
2022-07-26T04:25:56.353Z,86.23
2022-07-26T04:28:23.261Z,86.11
2022-07-26T04:30:50.059Z,86.21
2022-07-26T04:33:16.736Z,86.56
2022-07-26T04:35:43.436Z,85.99
2022-07-26T04:38:10.159Z,85.80
2022-07-26T04:40:40.959Z,85.81
2022-07-26T04:43:09.963Z,85.97
2022-07-26T04:45:37.523Z,85.76
2022-07-26T04:48:04.640Z,84.93
2022-07-26T04:50:31.262Z,84.97
2022-07-26T04:53:04.824Z,85.54
2022-07-26T04:55:31.866Z,85.22
2022-07-26T04:57:58.592Z,86.44
2022-07-26T05:00:25.554Z,86.41
2022-07-26T05:02:55.276Z,87.19
2022-07-26T05:05:23.147Z,86.66
2022-07-26T05:07:52.470Z,85.45
2022-07-26T05:10:20.528Z,86.63
2022-07-26T05:12:48.195Z,86.21
2022-07-26T05:15:15.599Z,85.17
2022-07-26T05:17:43.385Z,85.36
2022-07-26T05:20:12.232Z,86.59
2022-07-26T05:22:39.456Z,85.58
2022-07-26T05:25:07.497Z,87.38
2022-07-26T05:27:34.340Z,87.53
2022-07-26T05:30:06.215Z,87.37
2022-07-26T05:32:32.885Z,87.45
2022-07-26T05:34:59.665Z,86.74
2022-07-26T05:37:27.258Z,86.30
2022-07-26T05:39:53.909Z,86.42
2022-07-26T05:42:20.613Z,86.32
2022-07-26T05:44:47.362Z,87.08
2022-07-26T05:47:14.076Z,86.50
2022-07-26T05:49:41.006Z,85.39
2022-07-26T05:52:09.029Z,85.64
2022-07-26T05:54:36.076Z,84.96
2022-07-26T05:57:03.441Z,84.92
2022-07-26T05:59:30.825Z,83.95
2022-07-26T06:01:57.637Z,84.68
2022-07-26T06:04:26.606Z,85.13
2022-07-26T06:06:54.913Z,83.99
2022-07-26T06:09:24.867Z,84.19
2022-07-26T06:11:51.700Z,85.09
2022-07-26T06:14:19.234Z,84.21
2022-07-26T06:16:47.090Z,86.05
2022-07-26T06:19:13.834Z,84.46
2022-07-26T06:21:40.459Z,84.43
2022-07-26T06:24:07.379Z,83.81
2022-07-26T06:26:34.300Z,82.79
2022-07-26T06:29:01.110Z,81.86
2022-07-26T06:31:27.852Z,81.34
2022-07-26T06:33:54.707Z,82.21
2022-07-26T06:36:22.938Z,82.00
2022-07-26T06:38:50.926Z,81.63
2022-07-26T06:41:17.599Z,80.50
2022-07-26T06:43:44.351Z,79.56
2022-07-26T06:46:11.093Z,81.71
2022-07-26T06:48:37.835Z,81.60
2022-07-26T06:51:06.390Z,80.81
2022-07-26T06:53:33.040Z,79.62
2022-07-26T06:55:59.976Z,79.25
2022-07-26T06:58:26.690Z,78.35
2022-07-26T07:00:53.391Z,78.58
2022-07-26T07:03:20.051Z,80.10
2022-07-26T07:05:50.105Z,78.57
2022-07-26T07:08:17.273Z,77.97
2022-07-26T07:10:44.660Z,79.78
2022-07-26T07:13:11.421Z,78.63
2022-07-26T07:15:40.891Z,78.29
2022-07-26T07:18:07.542Z,78.34
2022-07-26T07:20:34.408Z,79.75
2022-07-26T07:23:01.086Z,80.93
2022-07-26T07:25:30.974Z,82.72
2022-07-26T07:27:58.221Z,82.16
2022-07-26T07:30:25.427Z,82.49
2022-07-26T07:32:55.614Z,82.54
2022-07-26T07:35:23.748Z,81.08
2022-07-26T07:37:52.916Z,79.56
2022-07-26T07:40:23.462Z,78.37
2022-07-26T07:42:52.778Z,76.61
2022-07-26T07:45:19.391Z,75.88
2022-07-26T07:47:46.132Z,74.55
2022-07-26T07:50:12.759Z,74.08
2022-07-26T07:52:39.449Z,71.62
2022-07-26T07:55:37.760Z,71.35
2022-07-26T07:57:54.832Z,70.58
2022-07-26T08:00:27.196Z,70.33
2022-07-26T08:02:54.964Z,67.88
2022-07-26T08:05:21.798Z,67.59
2022-07-26T08:07:49.753Z,67.06
2022-07-26T08:10:19.783Z,67.45
2022-07-26T08:12:46.523Z,67.15
2022-07-26T08:15:19.374Z,66.78
2022-07-26T08:17:52.222Z,65.53
2022-07-26T08:20:20.930Z,64.83
2022-07-26T08:22:50.646Z,65.75
2022-07-26T08:25:17.330Z,64.67
2022-07-26T08:27:55.092Z,62.73
2022-07-26T08:30:29.759Z,62.12
2022-07-26T08:32:56.462Z,62.39
2022-07-26T08:35:23.120Z,62.33
2022-07-26T08:37:50.139Z,62.07
2022-07-26T08:40:17.058Z,62.80
2022-07-26T08:42:54.493Z,61.35
2022-07-26T08:45:26.463Z,60.24
2022-07-26T08:48:16.214Z,61.28
2022-07-26T08:50:41.411Z,62.70
2022-07-26T08:53:09.366Z,63.38
2022-07-26T08:56:04.206Z,63.54
2022-07-26T08:58:23.507Z,62.69
2022-07-26T09:01:08.089Z,62.68
2022-07-26T09:03:40.310Z,62.37
2022-07-26T09:06:22.103Z,62.31
2022-07-26T09:08:51.749Z,61.44
2022-07-26T09:11:26.666Z,62.18
2022-07-26T09:14:05.081Z,62.30
2022-07-26T09:16:39.250Z,61.37
2022-07-26T09:19:22.353Z,60.00
2022-07-26T09:21:50.068Z,59.08
2022-07-26T09:24:46.297Z,59.75
2022-07-26T09:27:24.109Z,60.00
2022-07-26T09:29:55.177Z,60.74
2022-07-26T09:32:28.095Z,61.46
2022-07-26T09:35:44.137Z,62.78
2022-07-26T09:38:00.453Z,63.16
2022-07-26T09:40:36.959Z,64.20
2022-07-26T09:43:06.143Z,64.02
2022-07-26T09:45:35.060Z,63.53
2022-07-26T09:48:03.506Z,61.80
2022-07-26T09:50:33.803Z,61.57
2022-07-26T09:53:09.655Z,61.74
2022-07-26T09:55:56.050Z,62.21
2022-07-26T09:58:24.161Z,59.96
2022-07-26T10:00:51.088Z,57.78
2022-07-26T10:03:17.864Z,58.69
2022-07-26T10:05:44.686Z,59.68
2022-07-26T10:08:12.799Z,58.46
2022-07-26T10:11:01.989Z,60.13
2022-07-26T10:13:30.408Z,57.81
2022-07-26T10:15:57.101Z,57.17
2022-07-26T10:18:36.642Z,56.46
2022-07-26T10:21:25.429Z,54.35
2022-07-26T10:23:56.942Z,53.73
2022-07-26T10:26:33.728Z,55.21
2022-07-26T10:29:16.011Z,55.60
2022-07-26T10:32:02.923Z,53.55
2022-07-26T10:34:36.077Z,51.99
2022-07-26T10:37:08.675Z,52.75
2022-07-26T10:39:38.848Z,51.85
2022-07-26T10:42:10.504Z,51.38
2022-07-26T10:44:41.288Z,52.63
2022-07-26T10:47:07.826Z,52.12
2022-07-26T10:49:37.401Z,51.76
2022-07-26T10:52:11.461Z,51.42
2022-07-26T10:54:59.443Z,51.84
2022-07-26T10:57:26.980Z,50.54
2022-07-26T10:59:59.393Z,51.99
2022-07-26T11:02:32.644Z,51.18
2022-07-26T11:05:13.298Z,49.72
2022-07-26T11:08:09.143Z,49.67
2022-07-26T11:10:42.523Z,51.24
2022-07-26T11:13:20.828Z,51.25
2022-07-26T11:15:54.222Z,49.73
2022-07-26T11:18:32.391Z,50.82
2022-07-26T11:21:12.961Z,50.21
2022-07-26T11:23:45.542Z,51.47
2022-07-26T11:26:20.129Z,52.37
2022-07-26T11:28:55.846Z,51.86
2022-07-26T11:31:51.298Z,52.36
2022-07-26T11:34:33.337Z,49.45
2022-07-26T11:37:05.035Z,51.35
2022-07-26T11:39:34.255Z,50.26
2022-07-26T11:42:08.366Z,49.55
2022-07-26T11:44:35.743Z,50.30
2022-07-26T11:47:12.882Z,48.79
2022-07-26T11:52:31.890Z,47.28
2022-07-26T11:55:01.383Z,47.33
2022-07-26T11:57:30.420Z,47.77
2022-07-26T11:59:58.932Z,47.45
2022-07-26T12:02:26.614Z,46.41
2022-07-26T12:05:12.662Z,46.75
2022-07-26T12:07:40.081Z,47.54
2022-07-26T12:10:07.234Z,48.17
2022-07-26T12:12:33.874Z,48.15
2022-07-26T12:15:07.023Z,48.38
2022-07-26T12:17:36.508Z,48.48
2022-07-26T12:20:17.922Z,47.65
2022-07-26T12:23:07.241Z,48.11
2022-07-26T12:25:37.401Z,48.70
2022-07-26T12:28:16.229Z,48.15
2022-07-26T12:30:43.457Z,48.78
2022-07-26T12:33:10.203Z,47.77
2022-07-26T12:35:37.001Z,47.22
2022-07-26T12:38:04.012Z,46.74
2022-07-26T12:40:41.406Z,46.28
2022-07-26T12:43:08.990Z,47.79
2022-07-26T12:45:36.666Z,47.17
2022-07-26T12:48:14.979Z,46.53
2022-07-26T12:50:42.098Z,47.17
2022-07-26T12:53:12.548Z,47.63
2022-07-26T12:55:40.592Z,46.50
2022-07-26T12:58:08.219Z,47.43
2022-07-26T13:00:41.473Z,46.26
2022-07-26T13:03:08.378Z,45.00
2022-07-26T13:05:36.289Z,46.21
2022-07-26T13:08:02.974Z,47.26
2022-07-26T13:10:33.552Z,47.54
2022-07-26T13:13:00.989Z,48.29
2022-07-26T13:15:36.458Z,49.63
2022-07-26T13:18:05.590Z,49.18
2022-07-26T13:20:33.343Z,47.78
2022-07-26T13:22:59.985Z,48.11
2022-07-26T13:25:28.944Z,46.62
2022-07-26T13:27:58.436Z,46.30
2022-07-26T13:30:25.223Z,45.97
2022-07-26T13:32:51.963Z,46.46
2022-07-26T13:35:20.082Z,47.70
2022-07-26T13:37:50.890Z,47.65
2022-07-26T13:40:20.131Z,49.46
2022-07-26T13:42:49.970Z,50.24
2022-07-26T13:45:16.827Z,51.58
2022-07-26T13:47:44.129Z,51.03
2022-07-26T13:50:12.286Z,51.81
2022-07-26T13:52:42.607Z,53.03
2022-07-26T13:55:09.358Z,51.72
2022-07-26T13:57:47.932Z,50.54
2022-07-26T14:00:24.708Z,51.06
2022-07-26T14:02:54.729Z,49.16
2022-07-26T14:05:21.800Z,50.19
2022-07-26T14:07:48.656Z,49.70
2022-07-26T14:10:15.296Z,48.26
2022-07-26T14:12:41.997Z,47.70
2022-07-26T14:15:16.638Z,46.57
2022-07-26T14:17:47.353Z,47.16
2022-07-26T14:20:14.894Z,47.97
2022-07-26T14:22:41.697Z,47.96
2022-07-26T14:25:08.743Z,48.03
2022-07-26T14:27:35.432Z,47.23
2022-07-26T14:30:02.311Z,47.38
2022-07-26T14:32:29.103Z,46.85
2022-07-26T14:34:55.843Z,46.35
2022-07-26T14:37:44.158Z,46.79
2022-07-26T14:40:10.140Z,46.36
2022-07-26T14:42:36.733Z,46.28
2022-07-26T14:45:03.850Z,46.52
2022-07-26T14:47:30.617Z,47.23
2022-07-26T14:49:58.885Z,46.62
2022-07-26T14:52:28.283Z,47.48
2022-07-26T14:54:55.172Z,46.03
2022-07-26T14:57:21.808Z,46.51
2022-07-26T14:59:49.541Z,45.66
2022-07-26T15:02:19.197Z,45.60
2022-07-26T15:04:46.066Z,46.33
2022-07-26T15:07:12.779Z,47.52
2022-07-26T15:09:39.458Z,48.64
2022-07-26T15:12:06.413Z,48.88
2022-07-26T15:14:36.007Z,50.73
2022-07-26T15:17:02.718Z,50.00
2022-07-26T15:19:29.317Z,50.66
2022-07-26T15:21:56.004Z,51.21
2022-07-26T15:24:23.194Z,51.97
2022-07-26T15:26:51.214Z,51.17
2022-07-26T15:29:17.978Z,51.58
2022-07-26T15:31:44.811Z,51.83
2022-07-26T15:34:12.036Z,50.01
2022-07-26T15:36:39.091Z,49.06
2022-07-26T15:39:16.715Z,49.79
2022-07-26T15:41:44.794Z,49.61
2022-07-26T15:44:12.578Z,50.21
2022-07-26T15:46:39.593Z,50.72
2022-07-26T15:49:07.285Z,50.59
2022-07-26T15:51:34.575Z,51.12
2022-07-26T15:54:17.594Z,51.52
2022-07-26T15:56:44.528Z,52.34
2022-07-26T15:59:11.779Z,51.82
2022-07-26T16:01:38.650Z,52.49
2022-07-26T16:04:05.851Z,53.28
2022-07-26T16:06:35.741Z,53.49
2022-07-26T16:09:19.248Z,53.48
2022-07-26T16:11:47.284Z,52.86
2022-07-26T16:14:14.769Z,53.42
2022-07-26T16:16:41.565Z,52.41
2022-07-26T16:19:08.465Z,53.16
2022-07-26T16:21:35.474Z,53.50
2022-07-26T16:24:06.748Z,54.05
2022-07-26T16:26:34.007Z,54.61
2022-07-26T16:29:00.873Z,54.91
2022-07-26T16:31:27.774Z,55.99
2022-07-26T16:33:54.471Z,56.94
2022-07-26T16:36:21.166Z,57.36
2022-07-26T16:38:50.079Z,58.88
2022-07-26T16:41:17.066Z,58.39
2022-07-26T16:43:43.691Z,59.07
2022-07-26T16:46:10.451Z,59.24
2022-07-26T16:48:37.178Z,58.04
2022-07-26T16:51:04.166Z,57.68
2022-07-26T16:53:30.772Z,58.62
2022-07-26T16:55:57.376Z,57.84
2022-07-26T16:58:24.060Z,57.46
2022-07-26T17:00:53.111Z,57.15
2022-07-26T17:03:19.808Z,58.15
2022-07-26T17:05:47.253Z,56.93
2022-07-26T17:08:13.950Z,56.68
2022-07-26T17:10:40.766Z,55.21
2022-07-26T17:13:07.662Z,54.65
2022-07-26T17:15:34.595Z,53.59
2022-07-26T17:18:01.213Z,53.70
2022-07-26T17:20:28.275Z,54.28
2022-07-26T17:22:54.990Z,54.78
2022-07-26T17:25:21.865Z,55.13
2022-07-26T17:27:48.477Z,54.84
2022-07-26T17:30:15.587Z,55.26
2022-07-26T17:32:42.361Z,55.99
2022-07-26T17:35:09.523Z,54.63
2022-07-26T17:37:36.403Z,55.05
2022-07-26T17:40:05.316Z,55.23
2022-07-26T17:42:37.705Z,55.27
2022-07-26T17:45:06.350Z,56.26
2022-07-26T17:47:33.138Z,56.64
2022-07-26T17:52:53.043Z,55.94
2022-07-26T17:55:20.409Z,55.40
2022-07-26T17:57:48.478Z,55.88
2022-07-26T18:00:19.456Z,55.81
2022-07-26T18:02:46.610Z,54.43
2022-07-26T18:05:13.474Z,53.58
2022-07-26T18:07:40.322Z,53.20
2022-07-26T18:10:07.724Z,52.89
2022-07-26T18:12:34.831Z,53.38
2022-07-26T18:15:01.430Z,52.89
2022-07-26T18:17:28.169Z,52.76
2022-07-26T18:19:54.846Z,54.59
2022-07-26T18:22:21.500Z,53.25
2022-07-26T18:24:48.142Z,51.97
2022-07-26T18:27:14.798Z,52.04
2022-07-26T18:29:41.764Z,53.04
2022-07-26T18:32:08.831Z,52.63
2022-07-26T18:34:35.489Z,53.12
2022-07-26T18:37:02.330Z,54.04
2022-07-26T18:39:30.547Z,53.74
2022-07-26T18:41:59.771Z,53.87
2022-07-26T18:44:26.427Z,55.77
2022-07-26T18:46:53.205Z,54.73
2022-07-26T18:49:21.123Z,53.79
2022-07-26T18:51:48.734Z,53.81
2022-07-26T18:54:16.640Z,54.40
2022-07-26T18:56:43.453Z,52.66
2022-07-26T18:59:10.469Z,52.59
2022-07-26T19:01:37.537Z,52.47
2022-07-26T19:04:07.119Z,51.96
2022-07-26T19:06:34.720Z,51.88
2022-07-26T19:09:01.417Z,51.42
2022-07-26T19:11:29.578Z,50.73
2022-07-26T19:13:56.287Z,50.83
2022-07-26T19:16:23.104Z,51.15
2022-07-26T19:18:53.830Z,50.18
2022-07-26T19:21:24.197Z,50.80
2022-07-26T19:23:50.841Z,50.82
2022-07-26T19:26:17.500Z,51.22
2022-07-26T19:28:44.099Z,50.87
2022-07-26T19:31:10.848Z,51.97
2022-07-26T19:33:37.520Z,51.96
2022-07-26T19:36:04.374Z,52.16
2022-07-26T19:38:32.890Z,53.16
2022-07-26T19:41:00.388Z,53.38
2022-07-26T19:43:27.843Z,53.16
2022-07-26T19:45:54.559Z,53.11
2022-07-26T19:48:21.360Z,53.14
2022-07-26T19:50:48.009Z,52.84
2022-07-26T19:53:14.655Z,52.17
2022-07-26T19:55:43.129Z,51.91
2022-07-26T19:58:09.938Z,51.12
2022-07-26T20:00:36.782Z,51.57
2022-07-26T20:03:04.006Z,52.79
2022-07-26T20:05:30.735Z,52.66
2022-07-26T20:07:57.916Z,52.78
2022-07-26T20:10:30.060Z,51.94
2022-07-26T20:12:58.968Z,52.87
2022-07-26T20:15:26.138Z,52.88
2022-07-26T20:17:52.771Z,51.50
2022-07-26T20:20:20.055Z,50.95
2022-07-26T20:22:46.972Z,51.23
2022-07-26T20:25:18.041Z,51.94
2022-07-26T20:27:49.865Z,52.68
2022-07-26T20:30:17.164Z,53.16
2022-07-26T20:32:44.778Z,51.56
2022-07-26T20:35:11.430Z,52.41
2022-07-26T20:37:38.128Z,52.90
2022-07-26T20:40:05.409Z,52.32
2022-07-26T20:42:35.221Z,54.29
2022-07-26T20:45:04.852Z,54.51
2022-07-26T20:47:40.196Z,54.47
2022-07-26T20:50:09.401Z,54.16
2022-07-26T20:52:36.408Z,53.24
2022-07-26T20:55:03.506Z,53.82
2022-07-26T20:57:30.198Z,54.38
2022-07-26T20:59:58.043Z,55.67
2022-07-26T21:02:24.903Z,54.48
2022-07-26T21:04:51.893Z,53.81
2022-07-26T21:07:18.896Z,54.09
2022-07-26T21:09:45.537Z,53.74
2022-07-26T21:12:12.115Z,53.52
2022-07-26T21:14:39.280Z,53.69
2022-07-26T21:17:11.401Z,54.42
2022-07-26T21:19:38.978Z,55.40
2022-07-26T21:22:05.562Z,57.30
2022-07-26T21:24:32.750Z,55.86
2022-07-26T21:26:59.377Z,55.86
2022-07-26T21:29:26.220Z,56.64
2022-07-26T21:31:53.154Z,56.77
2022-07-26T21:34:20.060Z,56.53
2022-07-26T21:36:46.748Z,57.26
2022-07-26T21:39:14.012Z,56.76
2022-07-26T21:41:41.019Z,58.71
2022-07-26T21:44:07.687Z,57.80
2022-07-26T21:46:34.420Z,59.71
2022-07-26T21:49:01.204Z,59.90
2022-07-26T21:51:27.916Z,59.19
2022-07-26T21:53:54.679Z,59.46
2022-07-26T21:56:21.857Z,59.69
2022-07-26T21:58:48.529Z,59.57
2022-07-26T22:01:15.590Z,58.96
2022-07-26T22:03:42.850Z,59.77
2022-07-26T22:06:10.333Z,59.37
2022-07-26T22:08:37.636Z,59.42
2022-07-26T22:11:04.381Z,60.62
2022-07-26T22:13:33.626Z,60.54
2022-07-26T22:16:00.610Z,61.13
2022-07-26T22:18:27.573Z,62.24
2022-07-26T22:20:55.760Z,62.32
2022-07-26T22:23:30.287Z,62.28
2022-07-26T22:25:59.025Z,61.56
2022-07-26T22:28:25.854Z,61.01
2022-07-26T22:30:52.568Z,63.05
2022-07-26T22:33:19.541Z,61.99
2022-07-26T22:35:48.015Z,61.75
2022-07-26T22:38:14.809Z,62.06
2022-07-26T22:40:42.628Z,62.24
2022-07-26T22:43:11.033Z,63.83
2022-07-26T22:45:39.458Z,65.57
2022-07-26T22:48:07.175Z,65.96
2022-07-26T22:50:34.116Z,67.52
2022-07-26T22:53:01.493Z,67.83
2022-07-26T22:55:29.091Z,67.27
2022-07-26T22:57:55.770Z,67.96
2022-07-26T23:00:22.679Z,68.37
2022-07-26T23:02:49.337Z,68.77
2022-07-26T23:05:16.101Z,68.21
2022-07-26T23:07:45.970Z,68.57
2022-07-26T23:10:15.568Z,68.16
2022-07-26T23:12:42.365Z,68.03
2022-07-26T23:15:09.880Z,68.68
2022-07-26T23:17:37.572Z,68.77
2022-07-26T23:20:06.270Z,68.72
2022-07-26T23:22:33.319Z,68.45
2022-07-26T23:24:59.907Z,68.66
2022-07-26T23:27:26.507Z,68.46
2022-07-26T23:29:53.102Z,68.24
2022-07-26T23:32:19.781Z,67.75
2022-07-26T23:34:46.421Z,67.07
2022-07-26T23:37:13.098Z,67.05
2022-07-26T23:39:39.761Z,66.93
2022-07-26T23:42:07.211Z,67.38
2022-07-26T23:44:34.086Z,68.75
2022-07-26T23:47:00.860Z,68.48
2022-07-26T23:49:27.598Z,69.37
2022-07-26T23:51:54.317Z,69.61
2022-07-26T23:54:21.118Z,70.42
2022-07-26T23:56:47.776Z,73.40
2022-07-26T23:59:15.124Z,74.18
